createdAt,value
2018-11-03T00:01:02.308Z,9.27
2018-11-03T00:03:33.039Z,6.23
2018-11-03T00:06:03.753Z,9.00
2018-11-03T00:08:34.617Z,7.30
2018-11-03T00:11:05.504Z,6.93
2018-11-03T00:13:36.200Z,7.37
2018-11-03T00:16:06.975Z,6.20
2018-11-03T00:18:37.625Z,9.20
2018-11-03T00:21:08.209Z,7.53
2018-11-03T00:23:39.090Z,6.70
2018-11-03T00:26:09.845Z,10.07
2018-11-03T00:28:40.900Z,8.53
2018-11-03T00:31:11.609Z,6.73
2018-11-03T00:33:42.309Z,11.50
2018-11-03T00:36:12.937Z,8.47
2018-11-03T00:38:50.245Z,7.33
2018-11-03T00:41:20.971Z,6.47
2018-11-03T00:43:51.802Z,8.40
2018-11-03T00:46:22.551Z,6.40
2018-11-03T00:48:53.248Z,7.77
2018-11-03T00:51:23.941Z,6.37
2018-11-03T00:53:54.819Z,8.17
2018-11-03T00:56:25.519Z,8.40
2018-11-03T00:58:56.548Z,6.33
2018-11-03T01:01:27.301Z,6.13
2018-11-03T01:03:58.203Z,7.97
2018-11-03T01:06:28.917Z,7.83
2018-11-03T01:08:59.625Z,6.23
2018-11-03T01:11:30.238Z,8.63
2018-11-03T01:14:00.906Z,6.63
2018-11-03T01:16:31.574Z,6.67
2018-11-03T01:19:02.245Z,6.67
2018-11-03T01:21:32.903Z,8.77
2018-11-03T01:24:04.662Z,6.33
2018-11-03T01:26:35.461Z,7.77
2018-11-03T01:29:06.430Z,7.67
2018-11-03T01:31:37.102Z,6.67
2018-11-03T01:34:07.919Z,8.90
2018-11-03T01:36:38.560Z,7.43
2018-11-03T01:39:12.153Z,7.40
2018-11-03T01:41:42.833Z,7.63
2018-11-03T01:44:13.546Z,9.97
2018-11-03T01:46:44.711Z,6.87
2018-11-03T01:49:15.490Z,8.30
2018-11-03T01:51:46.361Z,7.97
2018-11-03T01:54:17.015Z,9.87
2018-11-03T01:56:47.679Z,8.13
2018-11-03T01:59:18.470Z,8.33
2018-11-03T02:01:49.158Z,10.33
2018-11-03T02:04:19.946Z,7.50
2018-11-03T02:06:50.677Z,9.17
2018-11-03T02:09:21.525Z,10.27
2018-11-03T02:11:52.324Z,9.00
2018-11-03T02:14:23.531Z,9.73
2018-11-03T02:16:54.262Z,8.63
2018-11-03T02:19:29.277Z,9.37
2018-11-03T02:22:00.058Z,8.93
2018-11-03T02:24:30.795Z,9.30
2018-11-03T02:27:01.383Z,8.63
2018-11-03T02:29:32.085Z,8.33
2018-11-03T02:32:02.750Z,8.60
2018-11-03T02:34:33.654Z,8.30
2018-11-03T02:37:05.391Z,9.13
2018-11-03T02:39:36.126Z,9.77
2018-11-03T02:42:06.839Z,9.33
2018-11-03T02:44:37.426Z,9.40
2018-11-03T02:47:15.207Z,8.60
2018-11-03T02:49:46.007Z,7.80
2018-11-03T02:52:17.062Z,8.63
2018-11-03T02:54:47.735Z,9.00
2018-11-03T02:57:18.498Z,8.20
2018-11-03T02:59:49.240Z,8.47
2018-11-03T03:02:19.905Z,8.27
2018-11-03T03:04:50.547Z,8.33
2018-11-03T03:07:21.218Z,7.17
2018-11-03T03:09:51.850Z,9.23
2018-11-03T03:12:22.430Z,8.37
2018-11-03T03:14:53.049Z,9.20
2018-11-03T03:17:23.837Z,9.40
2018-11-03T03:19:54.588Z,6.80
2018-11-03T03:22:25.219Z,9.03
2018-11-03T03:24:56.149Z,9.80
2018-11-03T03:27:26.959Z,9.33
2018-11-03T03:29:57.691Z,8.50
2018-11-03T03:32:28.422Z,10.20
2018-11-03T03:34:59.098Z,10.10
2018-11-03T03:37:29.730Z,9.13
2018-11-03T03:40:00.400Z,7.37
2018-11-03T03:42:30.955Z,9.10
2018-11-03T03:45:01.971Z,8.90
2018-11-03T03:47:32.495Z,7.73
2018-11-03T03:50:03.047Z,8.23
2018-11-03T03:52:33.579Z,8.80
2018-11-03T03:55:04.222Z,13.17
2018-11-03T03:57:34.733Z,8.57
2018-11-03T04:00:05.981Z,9.47
2018-11-03T04:02:36.484Z,10.77
2018-11-03T04:05:07.638Z,11.13
2018-11-03T04:07:38.519Z,9.08
2018-11-03T04:10:10.365Z,7.23
2018-11-03T04:12:41.137Z,9.37
2018-11-03T04:15:11.870Z,8.13
2018-11-03T04:17:42.441Z,7.63
2018-11-03T04:20:13.151Z,8.30
2018-11-03T04:22:43.781Z,11.57
2018-11-03T04:25:14.580Z,7.47
2018-11-03T04:27:45.251Z,7.17
2018-11-03T04:30:15.898Z,9.17
2018-11-03T04:32:46.722Z,7.47
2018-11-03T04:35:17.510Z,6.77
2018-11-03T04:37:48.285Z,8.13
2018-11-03T04:40:19.407Z,10.53
2018-11-03T04:42:50.088Z,6.93
2018-11-03T04:45:20.929Z,8.97
2018-11-03T04:47:51.622Z,8.10
2018-11-03T04:50:22.457Z,6.53
2018-11-03T04:52:53.209Z,9.38
2018-11-03T04:55:24.047Z,8.50
2018-11-03T04:57:54.898Z,8.23
2018-11-03T05:00:26.019Z,7.23
2018-11-03T05:02:56.775Z,5.87
2018-11-03T05:05:27.625Z,9.00
2018-11-03T05:07:58.256Z,7.90
2018-11-03T05:10:28.928Z,8.70
2018-11-03T05:12:59.537Z,7.57
2018-11-03T05:15:30.294Z,9.13
2018-11-03T05:18:00.967Z,8.47
2018-11-03T05:20:31.771Z,7.87
2018-11-03T05:23:02.578Z,6.80
2018-11-03T05:25:33.404Z,7.17
2018-11-03T05:28:04.199Z,10.48
2018-11-03T05:30:34.946Z,9.10
2018-11-03T05:33:05.595Z,9.30
2018-11-03T05:35:39.253Z,6.43
2018-11-03T05:38:09.962Z,7.90
2018-11-03T05:40:40.724Z,8.40
2018-11-03T05:43:11.532Z,6.20
2018-11-03T05:45:42.463Z,10.20
2018-11-03T05:48:13.217Z,8.60
2018-11-03T05:50:44.007Z,8.23
2018-11-03T05:53:21.399Z,7.97
2018-11-03T05:55:52.113Z,8.63
2018-11-03T05:58:22.739Z,9.97
2018-11-03T06:00:53.938Z,11.03
2018-11-03T06:03:24.537Z,7.77
2018-11-03T06:05:55.099Z,7.37
2018-11-03T06:08:25.715Z,11.80
2018-11-03T06:10:56.399Z,8.57
2018-11-03T06:13:26.992Z,8.90
2018-11-03T06:15:57.830Z,8.37
2018-11-03T06:18:28.502Z,6.67
2018-11-03T06:20:59.304Z,10.90
2018-11-03T06:23:30.104Z,8.53
2018-11-03T06:26:00.846Z,8.20
2018-11-03T06:28:31.676Z,7.07
2018-11-03T06:31:02.404Z,9.27
2018-11-03T06:33:33.146Z,9.20
2018-11-03T06:36:04.440Z,7.97
2018-11-03T06:38:35.260Z,7.40
2018-11-03T06:41:06.595Z,7.83
2018-11-03T06:43:37.382Z,8.07
2018-11-03T06:46:08.574Z,10.37
2018-11-03T06:48:39.417Z,8.80
2018-11-03T06:51:10.343Z,8.57
2018-11-03T06:53:41.106Z,9.10
2018-11-03T06:56:11.864Z,7.07
2018-11-03T06:58:42.565Z,7.93
2018-11-03T07:01:13.461Z,7.77
2018-11-03T07:03:44.283Z,10.33
2018-11-03T07:06:15.024Z,10.70
2018-11-03T07:08:45.765Z,10.57
2018-11-03T07:11:16.456Z,8.57
2018-11-03T07:13:47.002Z,8.47
2018-11-03T07:16:17.631Z,8.27
2018-11-03T07:18:48.202Z,9.10
2018-11-03T07:21:18.850Z,8.87
2018-11-03T07:23:49.480Z,9.23
2018-11-03T07:26:22.964Z,8.30
2018-11-03T07:28:53.828Z,12.30
2018-11-03T07:31:24.747Z,11.07
2018-11-03T07:33:55.510Z,10.87
2018-11-03T07:36:26.366Z,11.53
2018-11-03T07:38:57.066Z,9.87
2018-11-03T07:41:27.837Z,10.47
2018-11-03T07:43:58.587Z,8.17
2018-11-03T07:46:29.520Z,12.73
2018-11-03T07:49:00.467Z,7.53
2018-11-03T07:51:31.868Z,10.83
2018-11-03T07:54:02.503Z,8.53
2018-11-03T07:57:01.868Z,10.37
2018-11-03T07:59:45.389Z,8.33
2018-11-03T08:02:16.355Z,10.57
2018-11-03T08:04:46.915Z,11.00
2018-11-03T08:07:17.685Z,7.97
2018-11-03T08:09:49.193Z,9.43
2018-11-03T08:12:19.988Z,9.93
2018-11-03T08:14:50.500Z,14.17
2018-11-03T08:17:21.291Z,13.43
2018-11-03T08:19:51.948Z,10.83
2018-11-03T08:22:22.555Z,11.30
2018-11-03T08:24:53.170Z,9.17
2018-11-03T08:27:23.750Z,14.40
2018-11-03T08:29:54.357Z,15.20
2018-11-03T08:32:25.395Z,9.43
2018-11-03T08:34:55.870Z,13.73
2018-11-03T08:37:26.722Z,12.70
2018-11-03T08:39:57.241Z,11.20
2018-11-03T08:42:27.829Z,10.37
2018-11-03T08:44:58.490Z,11.63
2018-11-03T08:47:29.157Z,15.63
2018-11-03T08:49:59.770Z,12.50
2018-11-03T08:52:30.354Z,10.50
2018-11-03T08:55:00.941Z,10.87
2018-11-03T08:57:31.897Z,13.17
2018-11-03T09:00:02.611Z,14.57
2018-11-03T09:02:33.067Z,13.57
2018-11-03T09:05:03.581Z,12.13
2018-11-03T09:07:35.617Z,12.77
2018-11-03T09:10:08.030Z,12.37
2018-11-03T09:12:38.806Z,10.47
2018-11-03T09:15:11.971Z,13.30
2018-11-03T09:17:43.709Z,11.47
2018-11-03T09:20:14.651Z,12.17
2018-11-03T09:22:45.261Z,11.90
2018-11-03T09:25:16.871Z,11.33
2018-11-03T09:27:47.447Z,12.23
2018-11-03T09:30:19.407Z,14.43
2018-11-03T09:32:50.133Z,11.73
2018-11-03T09:35:20.777Z,15.57
2018-11-03T09:37:51.441Z,12.63
2018-11-03T09:40:21.950Z,11.20
2018-11-03T09:42:52.711Z,18.50
2018-11-03T09:45:23.157Z,15.87
2018-11-03T09:47:53.853Z,12.23
2018-11-03T09:50:24.398Z,13.47
2018-11-03T09:52:55.132Z,17.80
2018-11-03T09:55:25.691Z,14.07
2018-11-03T09:57:56.275Z,17.07
2018-11-03T10:00:26.938Z,13.33
2018-11-03T10:02:57.581Z,14.97
2018-11-03T10:05:28.108Z,13.67
2018-11-03T10:08:00.259Z,12.80
2018-11-03T10:10:30.959Z,15.80
2018-11-03T10:13:02.662Z,16.90
2018-11-03T10:15:33.211Z,17.90
2018-11-03T10:18:03.883Z,14.23
2018-11-03T10:20:34.538Z,17.60
2018-11-03T10:23:05.295Z,18.20
2018-11-03T10:25:35.806Z,16.43
2018-11-03T10:28:08.747Z,15.37
2018-11-03T10:30:43.544Z,17.43
2018-11-03T10:33:20.806Z,17.97
2018-11-03T10:35:51.670Z,19.00
2018-11-03T10:38:22.368Z,17.67
2018-11-03T10:40:53.080Z,17.70
2018-11-03T10:43:23.751Z,15.97
2018-11-03T10:45:54.282Z,18.27
2018-11-03T10:48:25.028Z,15.87
2018-11-03T10:50:55.742Z,21.33
2018-11-03T10:53:27.451Z,15.53
2018-11-03T10:55:58.938Z,18.33
2018-11-03T10:58:30.391Z,16.13
2018-11-03T11:01:07.252Z,18.70
2018-11-03T11:03:42.851Z,15.43
2018-11-03T11:06:18.557Z,18.57
2018-11-03T11:08:54.157Z,16.90
2018-11-03T11:11:29.711Z,17.93
2018-11-03T11:14:00.497Z,18.30
2018-11-03T11:16:31.041Z,19.23
2018-11-03T11:19:01.719Z,16.63
2018-11-03T11:21:32.321Z,17.47
2018-11-03T11:24:03.093Z,16.40
2018-11-03T11:26:33.614Z,16.63
2018-11-03T11:29:04.156Z,20.70
2018-11-03T11:31:34.883Z,19.00
2018-11-03T11:34:05.763Z,19.43
2018-11-03T11:36:36.324Z,21.00
2018-11-03T11:39:09.048Z,19.03
2018-11-03T11:41:39.791Z,16.17
2018-11-03T11:44:10.347Z,13.90
2018-11-03T11:46:40.864Z,16.97
2018-11-03T11:49:11.470Z,14.47
2018-11-03T11:51:42.058Z,17.17
2018-11-03T11:54:12.761Z,15.47
2018-11-03T11:56:43.390Z,15.00
2018-11-03T11:59:14.011Z,15.23
2018-11-03T12:01:44.602Z,13.03
2018-11-03T12:04:15.359Z,16.47
2018-11-03T12:06:45.981Z,16.23
2018-11-03T12:09:23.034Z,16.70
2018-11-03T12:11:53.617Z,18.10
2018-11-03T12:14:24.334Z,15.93
2018-11-03T12:16:55.198Z,14.53
2018-11-03T12:19:26.842Z,15.00
2018-11-03T12:21:57.502Z,11.00
2018-11-03T12:24:28.146Z,10.97
2018-11-03T12:26:58.716Z,11.63
2018-11-03T12:29:31.344Z,14.60
2018-11-03T12:32:02.079Z,13.57
2018-11-03T12:34:32.879Z,14.90
2018-11-03T12:37:06.876Z,12.43
2018-11-03T12:39:37.481Z,11.83
2018-11-03T12:42:08.158Z,13.23
2018-11-03T12:44:39.023Z,13.70
2018-11-03T12:47:09.615Z,19.93
2018-11-03T12:49:40.634Z,11.63
2018-11-03T12:52:11.615Z,16.23
2018-11-03T12:54:43.031Z,15.23
2018-11-03T12:57:13.769Z,11.87
2018-11-03T12:59:44.791Z,15.87
2018-11-03T13:02:15.228Z,12.80
2018-11-03T13:04:45.738Z,12.83
2018-11-03T13:07:16.291Z,17.47
2018-11-03T13:09:46.988Z,14.67
2018-11-03T13:12:17.724Z,11.93
2018-11-03T13:14:48.277Z,13.07
2018-11-03T13:17:18.820Z,13.07
2018-11-03T13:19:55.939Z,13.73
2018-11-03T13:22:26.477Z,13.83
2018-11-03T13:24:57.083Z,11.67
2018-11-03T13:27:28.092Z,11.67
2018-11-03T13:29:58.638Z,11.33
2018-11-03T13:32:35.704Z,7.73
2018-11-03T13:35:07.783Z,8.40
2018-11-03T13:37:38.341Z,8.60
2018-11-03T13:40:10.465Z,8.10
2018-11-03T13:42:41.148Z,8.43
2018-11-03T13:45:12.128Z,8.23
2018-11-03T13:47:42.549Z,6.47
2018-11-03T13:50:14.430Z,5.57
2018-11-03T13:52:47.053Z,7.10
2018-11-03T13:55:17.721Z,12.10
2018-11-03T13:57:48.349Z,8.10
2018-11-03T14:00:19.815Z,8.93
2018-11-03T14:02:50.340Z,9.03
2018-11-03T14:05:20.928Z,9.03
2018-11-03T14:07:51.456Z,9.00
2018-11-03T14:10:22.050Z,8.27
2018-11-03T14:12:52.664Z,8.27
2018-11-03T14:15:23.257Z,9.60
2018-11-03T14:17:53.866Z,10.67
2018-11-03T14:20:24.495Z,10.70
2018-11-03T14:22:55.041Z,9.67
2018-11-03T14:25:25.678Z,8.70
2018-11-03T14:27:56.287Z,11.37
2018-11-03T14:30:26.924Z,7.40
2018-11-03T14:32:57.554Z,10.00
2018-11-03T14:35:28.227Z,8.90
2018-11-03T14:37:58.879Z,9.30
2018-11-03T14:40:30.528Z,10.80
2018-11-03T14:43:01.148Z,8.43
2018-11-03T14:45:31.816Z,9.47
2018-11-03T14:48:02.420Z,7.77
2018-11-03T14:50:34.162Z,7.10
2018-11-03T14:53:04.888Z,9.67
2018-11-03T14:55:35.608Z,9.83
2018-11-03T14:58:06.727Z,10.77
2018-11-03T15:00:38.339Z,10.47
2018-11-03T15:03:09.237Z,8.73
2018-11-03T15:05:39.825Z,12.07
2018-11-03T15:08:10.459Z,11.90
2018-11-03T15:10:41.170Z,9.90
2018-11-03T15:13:11.783Z,10.70
2018-11-03T15:15:42.619Z,11.33
2018-11-03T15:18:13.222Z,10.13
2018-11-03T15:20:43.878Z,9.87
2018-11-03T15:23:14.502Z,11.33
2018-11-03T15:25:45.189Z,10.80
2018-11-03T15:28:15.746Z,14.37
2018-11-03T15:30:46.398Z,9.93
2018-11-03T15:33:17.004Z,12.27
2018-11-03T15:35:47.578Z,9.87
2018-11-03T15:38:18.184Z,10.77
2018-11-03T15:40:48.844Z,12.00
2018-11-03T15:43:19.462Z,8.53
2018-11-03T15:45:50.077Z,9.40
2018-11-03T15:48:20.607Z,12.23
2018-11-03T15:50:51.791Z,9.37
2018-11-03T15:53:22.452Z,9.77
2018-11-03T15:55:53.042Z,13.70
2018-11-03T15:58:23.615Z,8.70
2018-11-03T16:00:54.167Z,10.97
2018-11-03T16:03:24.749Z,11.73
2018-11-03T16:05:55.502Z,11.97
2018-11-03T16:08:26.162Z,8.53
2018-11-03T16:10:56.833Z,8.37
2018-11-03T16:13:27.462Z,11.12
2018-11-03T16:15:58.060Z,12.93
2018-11-03T16:18:28.661Z,11.40
2018-11-03T16:20:59.365Z,11.10
2018-11-03T16:23:30.162Z,14.63
2018-11-03T16:26:00.980Z,13.47
2018-11-03T16:28:31.608Z,10.00
2018-11-03T16:31:02.640Z,9.00
2018-11-03T16:33:33.182Z,14.10
2018-11-03T16:36:03.880Z,8.63
2018-11-03T16:38:34.715Z,10.80
2018-11-03T16:41:05.316Z,11.33
2018-11-03T16:43:35.900Z,11.20
2018-11-03T16:46:06.859Z,13.57
2018-11-03T16:48:37.496Z,9.83
2018-11-03T16:51:08.179Z,13.43
2018-11-03T16:53:39.046Z,14.60
2018-11-03T16:56:09.685Z,10.60
2018-11-03T16:58:40.491Z,9.10
2018-11-03T17:01:11.262Z,11.40
2018-11-03T17:03:41.927Z,10.47
2018-11-03T17:06:12.652Z,10.97
2018-11-03T17:08:43.229Z,11.50
2018-11-03T17:11:13.862Z,10.87
2018-11-03T17:13:44.447Z,10.33
2018-11-03T17:16:15.626Z,10.23
2018-11-03T17:18:46.328Z,14.47
2018-11-03T17:21:16.946Z,12.17
2018-11-03T17:23:47.649Z,11.97
2018-11-03T17:26:18.530Z,8.33
2018-11-03T17:28:49.179Z,14.03
2018-11-03T17:31:19.932Z,10.60
2018-11-03T17:33:50.508Z,9.43
2018-11-03T17:36:21.263Z,11.67
2018-11-03T17:38:52.140Z,10.30
2018-11-03T17:41:22.989Z,13.43
2018-11-03T17:43:53.702Z,13.37
2018-11-03T17:46:24.672Z,11.80
2018-11-03T17:48:55.425Z,9.30
2018-11-03T17:51:26.395Z,14.00
2018-11-03T17:53:57.358Z,10.80
2018-11-03T17:56:28.226Z,15.77
2018-11-03T17:58:59.068Z,10.33
2018-11-03T18:01:30.061Z,13.03
2018-11-03T18:04:00.805Z,10.67
2018-11-03T18:06:31.818Z,13.13
2018-11-03T18:09:02.625Z,12.90
2018-11-03T18:11:33.541Z,11.70
2018-11-03T18:14:04.495Z,14.70
2018-11-03T18:16:35.597Z,14.07
2018-11-03T18:19:06.584Z,11.70
2018-11-03T18:21:38.127Z,13.30
2018-11-03T18:24:08.989Z,9.53
2018-11-03T18:26:40.445Z,10.97
2018-11-03T18:29:11.672Z,11.60
2018-11-03T18:31:42.661Z,12.50
2018-11-03T18:34:13.856Z,8.43
2018-11-03T18:36:44.868Z,12.93
2018-11-03T18:39:15.886Z,11.97
2018-11-03T18:41:47.003Z,13.77
2018-11-03T18:44:17.758Z,13.70
2018-11-03T18:46:48.670Z,15.93
2018-11-03T18:49:19.556Z,16.43
2018-11-03T18:51:50.712Z,13.73
2018-11-03T18:54:21.424Z,15.57
2018-11-03T18:56:52.158Z,15.90
2018-11-03T18:59:29.337Z,14.33
2018-11-03T19:02:00.227Z,13.67
2018-11-03T19:04:30.997Z,16.90
2018-11-03T19:07:03.068Z,12.53
2018-11-03T19:09:34.189Z,13.57
2018-11-03T19:12:04.986Z,12.87
2018-11-03T19:14:36.043Z,15.10
2018-11-03T19:17:07.000Z,11.43
2018-11-03T19:19:37.680Z,12.17
2018-11-03T19:22:08.593Z,15.40
2018-11-03T19:24:39.213Z,14.93
2018-11-03T19:27:10.000Z,12.80
2018-11-03T19:29:41.040Z,15.43
2018-11-03T19:32:11.901Z,13.77
2018-11-03T19:34:42.686Z,15.97
2018-11-03T19:37:13.431Z,15.37
2018-11-03T19:39:44.107Z,17.87
2018-11-03T19:42:14.973Z,12.17
2018-11-03T19:44:45.894Z,14.17
2018-11-03T19:47:16.922Z,12.00
2018-11-03T19:49:47.810Z,13.10
2018-11-03T19:52:18.805Z,15.03
2018-11-03T19:54:49.524Z,11.77
2018-11-03T19:57:20.204Z,11.73
2018-11-03T19:59:50.950Z,12.93
2018-11-03T20:02:21.568Z,10.73
2018-11-03T20:04:52.385Z,11.57
2018-11-03T20:07:23.374Z,12.23
2018-11-03T20:09:54.651Z,13.80
2018-11-03T20:12:28.078Z,13.30
2018-11-03T20:14:59.182Z,12.00
2018-11-03T20:17:29.887Z,12.90
2018-11-03T20:20:00.724Z,10.77
2018-11-03T20:22:34.031Z,12.73
2018-11-03T20:25:05.591Z,9.97
2018-11-03T20:27:36.566Z,11.50
2018-11-03T20:30:11.960Z,13.07
2018-11-03T20:32:43.192Z,10.43
2018-11-03T20:35:14.341Z,10.83
2018-11-03T20:37:45.053Z,10.17
2018-11-03T20:40:16.074Z,11.17
2018-11-03T20:42:46.874Z,13.23
2018-11-03T20:45:17.888Z,8.98
2018-11-03T20:47:48.822Z,12.17
2018-11-03T20:50:19.717Z,11.38
2018-11-03T20:52:50.822Z,13.93
2018-11-03T20:55:21.689Z,13.80
2018-11-03T20:57:52.526Z,15.97
2018-11-03T21:00:32.680Z,13.37
2018-11-03T21:03:03.938Z,12.97
2018-11-03T21:05:34.739Z,12.00
2018-11-03T21:08:05.591Z,14.47
2018-11-03T21:10:37.356Z,12.53
2018-11-03T21:13:08.406Z,12.13
2018-11-03T21:15:40.489Z,16.33
2018-11-03T21:18:11.435Z,11.03
2018-11-03T21:20:42.301Z,11.50
2018-11-03T21:23:13.395Z,12.63
2018-11-03T21:25:45.130Z,12.90
2018-11-03T21:28:15.964Z,12.63
2018-11-03T21:30:47.436Z,11.10
2018-11-03T21:33:18.609Z,13.57
2018-11-03T21:35:49.510Z,16.00
2018-11-03T21:38:20.723Z,12.23
2018-11-03T21:40:51.546Z,12.37
2018-11-03T21:43:22.484Z,13.43
2018-11-03T21:45:53.291Z,13.17
2018-11-03T21:48:24.197Z,14.87
2018-11-03T21:51:05.191Z,14.13
2018-11-03T21:53:37.389Z,14.70
2018-11-03T21:56:08.830Z,14.63
2018-11-03T22:01:39.872Z,12.33
2018-11-03T22:04:10.599Z,13.80
2018-11-03T22:06:41.353Z,15.03
2018-11-03T22:09:13.317Z,10.63
2018-11-03T22:11:43.905Z,11.73
2018-11-03T22:14:14.574Z,7.83
2018-11-03T22:16:45.280Z,10.77
2018-11-03T22:19:15.922Z,13.30
2018-11-03T22:21:46.649Z,15.43
2018-11-03T22:24:17.210Z,15.60
2018-11-03T22:26:47.920Z,14.33
2018-11-03T22:29:18.927Z,14.87
2018-11-03T22:31:56.179Z,17.60
2018-11-03T22:34:26.971Z,16.10
2018-11-03T22:36:57.675Z,15.10
2018-11-03T22:39:28.318Z,15.00
2018-11-03T22:41:59.062Z,16.03
2018-11-03T22:44:29.735Z,15.43
2018-11-03T22:47:00.441Z,13.13
2018-11-03T22:49:31.219Z,12.97
2018-11-03T22:52:04.269Z,12.63
2018-11-03T22:54:35.244Z,14.97
2018-11-03T22:57:06.072Z,15.43
2018-11-03T22:59:36.766Z,15.07
2018-11-03T23:02:07.771Z,13.47
2018-11-03T23:04:38.564Z,13.47
2018-11-03T23:07:09.292Z,12.80
2018-11-03T23:09:39.998Z,15.77
2018-11-03T23:12:10.729Z,14.53
2018-11-03T23:14:41.587Z,15.17
2018-11-03T23:17:12.239Z,15.60
2018-11-03T23:19:42.827Z,12.20
2018-11-03T23:22:13.686Z,11.13
2018-11-03T23:24:44.421Z,16.03
2018-11-03T23:27:15.048Z,12.37
2018-11-03T23:29:46.013Z,13.10
2018-11-03T23:32:16.712Z,12.17
2018-11-03T23:34:47.481Z,13.20
2018-11-03T23:37:18.202Z,15.67
2018-11-03T23:39:48.875Z,18.83
2018-11-03T23:42:19.498Z,12.83
2018-11-03T23:44:50.176Z,12.90
2018-11-03T23:47:20.797Z,14.00
2018-11-03T23:49:51.470Z,13.33
2018-11-03T23:52:27.267Z,13.30
2018-11-03T23:54:57.956Z,11.43
2018-11-03T23:57:28.772Z,12.07
2018-11-03T23:59:59.808Z,14.07
